Time;durP1;ratioP1;P1;durP2;ratioP2;P2;SDS_P1;SDS_P2;PMS_P1;PMS_P2;Temp;Humidity;BMP_temperature;BMP_pressure;BME280_temperature;BME280_humidity;BME280_pressure;Samples;Min_cycle;Max_cycle;Signal;HPM_P1;HPM_P2
2023/06/15 00:00:00;;;;;;;2.90;2.60;;;;;;;19.33;46.83;99400.03;339352;28;5197;-68
2023/06/15 00:00:13;;;;;;;4.28;2.60;;;;;;;19.35;46.77;99403.38;339298;28;4693;-69
2023/06/15 00:00:25;;;;;;;4.18;2.70;;;;;;;19.34;47.09;99399.09;336075;28;18115;-69
2023/06/15 00:00:37;;;;;;;2.80;2.60;;;;;;;19.35;47.15;99406.03;338872;28;4940;-68
2023/06/15 00:00:49;;;;;;;2.90;2.60;;;;;;;19.35;47.77;99403.38;336501;28;17593;-68
2023/06/15 00:01:01;;;;;;;2.95;2.65;;;;;;;19.26;47.18;99402.28;339894;28;5496;-68
2023/06/15 00:01:14;;;;;;;3.83;2.95;;;;;;;19.16;46.58;99399.47;336584;28;18086;-68
2023/06/15 00:01:25;;;;;;;3.97;3.10;;;;;;;19.17;46.72;99402.94;340172;28;4539;-68
2023/06/15 00:01:37;;;;;;;4.45;2.92;;;;;;;19.19;47.17;99393.13;337504;28;4695;-69
2023/06/15 00:01:50;;;;;;;3.65;2.80;;;;;;;19.22;47.60;99405.25;339150;28;6149;-69
2023/06/15 00:02:03;;;;;;;4.90;2.95;;;;;;;19.23;47.89;99401.66;339866;28;4656;-68
2023/06/15 00:02:15;;;;;;;4.75;2.90;;;;;;;19.24;47.41;99405.97;336587;28;19649;-68
2023/06/15 00:02:27;;;;;;;4.10;2.63;;;;;;;19.25;47.69;99397.94;338984;28;5567;-68
2023/06/15 00:02:40;;;;;;;4.05;2.60;;;;;;;19.27;47.42;99397.84;336130;28;17836;-69
2023/06/15 00:02:53;;;;;;;3.15;2.80;;;;;;;19.32;46.94;99401.81;337390;28;5075;-69
2023/06/15 00:03:07;;;;;;;3.22;2.85;;;;;;;19.33;46.74;99403.50;338940;28;4803;-68
2023/06/15 00:03:19;;;;;;;5.45;2.90;;;;;;;19.35;46.67;99401.59;337112;28;17741;-68
2023/06/15 00:03:31;;;;;;;5.18;2.90;;;;;;;19.38;46.73;99400.53;340063;28;5615;-68
2023/06/15 00:03:44;;;;;;;4.68;2.90;;;;;;;19.40;46.97;99401.28;337394;28;18224;-69
2023/06/15 00:03:56;;;;;;;3.80;2.90;;;;;;;19.41;47.54;99402.09;339425;28;5755;-68
2023/06/15 00:04:09;;;;;;;4.07;2.92;;;;;;;19.44;47.28;99396.63;336431;28;10816;-68
2023/06/15 00:04:21;;;;;;;4.28;2.85;;;;;;;19.43;47.70;99403.66;338389;28;4678;-68
2023/06/15 00:04:33;;;;;;;4.00;2.80;;;;;;;19.44;47.24;99401.91;337293;28;16410;-69
2023/06/15 00:04:45;;;;;;;4.27;2.80;;;;;;;19.44;47.39;99408.00;338212;28;4477;-69
2023/06/15 00:04:57;;;;;;;3.70;2.83;;;;;;;19.44;48.06;99394.81;337499;28;4946;-68
2023/06/15 00:05:09;;;;;;;3.85;3.00;;;;;;;19.44;48.14;99405.38;335618;28;19013;-69
2023/06/15 00:05:21;;;;;;;3.55;2.95;;;;;;;19.43;48.16;99402.84;337491;28;5185;-69
2023/06/15 00:05:33;;;;;;;4.30;2.92;;;;;;;19.41;47.45;99395.03;334988;28;18825;-69
2023/06/15 00:05:46;;;;;;;4.65;2.88;;;;;;;19.40;47.74;99397.78;338731;28;4452;-68
2023/06/15 00:05:58;;;;;;;6.93;2.75;;;;;;;19.41;47.75;99400.31;335492;28;5017;-69
2023/06/15 00:06:10;;;;;;;7.20;2.90;;;;;;;19.42;47.85;99406.41;337424;28;4609;-68
2023/06/15 00:06:22;;;;;;;4.15;2.85;;;;;;;19.43;47.86;99398.41;338459;28;4808;-69
2023/06/15 00:06:34;;;;;;;4.25;2.88;;;;;;;19.43;47.82;99401.03;335499;28;18007;-68
2023/06/15 00:06:46;;;;;;;3.88;2.70;;;;;;;19.44;47.86;99399.25;337967;28;5338;-69
2023/06/15 00:06:58;;;;;;;3.40;2.85;;;;;;;19.46;47.92;99398.19;337358;28;17937;-69
2023/06/15 00:07:10;;;;;;;3.50;2.73;;;;;;;19.46;47.60;99392.91;340179;28;4518;-69
2023/06/15 00:07:22;;;;;;;3.28;2.80;;;;;;;19.44;47.90;99397.47;340053;28;5438;-69
2023/06/15 00:07:34;;;;;;;3.90;2.88;;;;;;;19.46;47.53;99402.63;337779;28;18001;-69
2023/06/15 00:07:46;;;;;;;3.28;2.70;;;;;;;19.47;47.23;99399.84;338611;28;4829;-68
2023/06/15 00:07:58;;;;;;;3.03;2.53;;;;;;;19.46;47.33;99398.19;336333;28;17801;-69
2023/06/15 00:08:10;;;;;;;2.72;2.53;;;;;;;19.45;47.17;99395.66;339029;28;4681;-69
2023/06/15 00:08:22;;;;;;;2.83;2.53;;;;;;;19.44;46.92;99400.09;340162;28;4608;-68
2023/06/15 00:08:34;;;;;;;2.88;2.50;;;;;;;19.45;46.89;99399.13;337327;28;18317;-69
2023/06/15 00:08:46;;;;;;;3.03;2.60;;;;;;;19.46;46.85;99398.19;338763;28;4691;-68
2023/06/15 00:08:58;;;;;;;4.97;2.70;;;;;;;19.46;47.51;99398.19;337400;28;17677;-69
2023/06/15 00:09:12;;;;;;;4.78;2.78;;;;;;;19.46;47.64;99400.81;340177;28;4520;-69
2023/06/15 00:09:24;;;;;;;4.45;2.67;;;;;;;19.48;47.19;99401.56;336133;28;18999;-69
2023/06/15 00:09:36;;;;;;;3.28;2.70;;;;;;;19.48;47.03;99404.19;338928;28;4690;-68
2023/06/15 00:09:48;;;;;;;3.92;2.72;;;;;;;19.50;47.38;99399.63;336876;28;4816;-69
2023/06/15 00:10:00;;;;;;;4.53;2.80;;;;;;;19.52;47.16;99397.72;339721;28;5292;-69
2023/06/15 00:10:12;;;;;;;3.67;2.80;;;;;;;19.51;47.79;99393.41;339464;28;4531;-68
2023/06/15 00:10:24;;;;;;;3.10;2.80;;;;;;;19.53;47.16;99402.03;336062;28;18171;-69
2023/06/15 00:10:36;;;;;;;3.25;2.95;;;;;;;19.52;46.84;99396.91;339039;28;4581;-68
2023/06/15 00:10:48;;;;;;;3.42;2.92;;;;;;;19.50;47.48;99402.28;337111;28;16113;-69
2023/06/15 00:11:00;;;;;;;3.70;2.70;;;;;;;19.52;47.25;99412.72;339233;28;4764;-69
2023/06/15 00:11:12;;;;;;;3.42;2.60;;;;;;;19.52;47.33;99402.16;339493;28;5464;-69
2023/06/15 00:11:25;;;;;;;3.10;2.80;;;;;;;19.51;47.85;99398.66;335927;28;18328;-69
2023/06/15 00:11:38;;;;;;;3.15;2.80;;;;;;;19.50;47.63;99399.63;339707;28;4522;-69
2023/06/15 00:11:50;;;;;;;3.70;2.80;;;;;;;19.50;47.02;99402.28;336851;28;18892;-68
2023/06/15 00:12:02;;;;;;;3.60;2.78;;;;;;;19.50;47.19;99399.63;339858;28;4556;-68
2023/06/15 00:12:14;;;;;;;3.13;2.72;;;;;;;19.49;47.39;99399.75;336727;28;18129;-68
2023/06/15 00:12:26;;;;;;;3.08;2.78;;;;;;;19.48;47.84;99400.72;339175;28;5213;-68
2023/06/15 00:12:38;;;;;;;3.30;3.00;;;;;;;19.50;47.32;99398.81;337173;28;4570;-69
2023/06/15 00:12:50;;;;;;;3.97;2.90;;;;;;;19.51;46.99;99405.75;338823;28;4717;-69
2023/06/15 00:13:02;;;;;;;4.13;2.90;;;;;;;19.53;46.57;99394.13;338826;28;4599;-69
2023/06/15 00:13:15;;;;;;;3.90;2.90;;;;;;;19.54;46.43;99395.81;336402;28;18554;-68
2023/06/15 00:13:27;;;;;;;3.25;2.88;;;;;;;19.56;46.43;99401.81;333975;28;4749;-69
2023/06/15 00:13:39;;;;;;;3.00;2.70;;;;;;;19.55;47.15;99402.75;336804;28;18238;-68
2023/06/15 00:13:51;;;;;;;2.97;2.67;;;;;;;19.58;46.62;99400.84;339851;28;5242;-68
2023/06/15 00:14:03;;;;;;;2.80;2.50;;;;;;;19.59;46.31;99399.91;336469;28;16329;-69
2023/06/15 00:14:15;;;;;;;3.38;2.50;;;;;;;19.60;46.28;99404.22;339894;28;4675;-69
2023/06/15 00:14:27;;;;;;;3.28;2.55;;;;;;;19.60;46.76;99393.66;340284;28;4523;-69
2023/06/15 00:14:39;;;;;;;3.40;2.60;;;;;;;19.59;46.98;99402.56;336324;28;18267;-68
2023/06/15 00:14:51;;;;;;;3.00;2.70;;;;;;;19.60;46.65;99404.22;338337;28;4613;-69
2023/06/15 00:15:04;;;;;;;3.25;2.90;;;;;;;19.60;46.86;99399.81;336995;28;16315;-69
2023/06/15 00:15:16;;;;;;;3.30;3.00;;;;;;;19.61;46.41;99395.38;340205;28;4852;-68
2023/06/15 00:15:28;;;;;;;3.45;3.10;;;;;;;19.60;47.29;99404.22;337278;28;16239;-69
2023/06/15 00:15:41;;;;;;;3.45;3.05;;;;;;;19.61;46.87;99398.00;340112;28;5846;-69
2023/06/15 00:15:53;;;;;;;3.42;2.90;;;;;;;19.60;47.20;99399.81;339278;28;5671;-69
2023/06/15 00:16:05;;;;;;;3.75;2.85;;;;;;;19.60;47.40;99402.44;336149;28;18148;-69
2023/06/15 00:16:18;;;;;;;4.05;2.90;;;;;;;19.59;47.59;99403.38;339422;28;4578;-68
2023/06/15 00:16:31;;;;;;;3.70;2.90;;;;;;;19.59;47.06;99392.00;335753;28;18034;-68
2023/06/15 00:16:45;;;;;;;3.58;2.90;;;;;;;19.55;47.11;99402.75;336678;28;19060;-69
2023/06/15 00:16:57;;;;;;;3.70;3.00;;;;;;;19.59;46.89;99403.38;339498;28;4816;-68
2023/06/15 00:17:11;;;;;;;5.22;3.10;;;;;;;19.58;47.56;99401.72;336967;28;18298;-69
2023/06/15 00:17:24;;;;;;;5.40;3.20;;;;;;;19.56;47.54;99399.19;336915;28;17638;-69
2023/06/15 00:17:37;;;;;;;3.65;3.10;;;;;;;19.58;47.15;99406.13;340135;28;5384;-68
2023/06/15 00:17:50;;;;;;;3.13;2.83;;;;;;;19.58;47.44;99400.84;336643;28;18596;-68
2023/06/15 00:18:03;;;;;;;3.22;2.90;;;;;;;19.55;47.43;99397.50;338785;28;4529;-69
2023/06/15 00:18:15;;;;;;;3.17;2.80;;;;;;;19.55;46.89;99400.13;336853;28;17930;-69
2023/06/15 00:18:27;;;;;;;3.00;2.70;;;;;;;19.56;46.96;99411.53;338637;28;5493;-69
2023/06/15 00:18:40;;;;;;;3.00;2.70;;;;;;;19.55;47.02;99408.03;336224;28;17762;-69
2023/06/15 00:18:54;;;;;;;3.00;2.70;;;;;;;19.55;46.33;99401.94;339610;28;4672;-68
2023/06/15 00:19:08;;;;;;;3.10;2.80;;;;;;;19.53;46.15;99409.94;336790;28;18264;-69
2023/06/15 00:19:21;;;;;;;3.75;2.97;;;;;;;19.54;46.55;99400.25;337195;28;18976;-68
2023/06/15 00:19:33;;;;;;;4.85;2.80;;;;;;;19.54;46.55;99400.25;339628;28;12032;-69
2023/06/15 00:19:45;;;;;;;4.18;2.60;;;;;;;19.56;46.74;99403.63;335361;28;18132;-69
2023/06/15 00:20:00;;;;;;;3.85;2.55;;;;;;;19.53;47.38;99399.41;338570;28;4558;-68
2023/06/15 00:20:13;;;;;;;3.05;2.70;;;;;;;19.52;46.76;99403.00;335529;28;18075;-68
2023/06/15 00:20:28;;;;;;;3.10;2.75;;;;;;;19.54;46.50;99401.09;335460;28;17527;-69
2023/06/15 00:20:40;;;;;;;3.97;2.67;;;;;;;19.52;46.91;99404.81;335778;28;18070;-69
2023/06/15 00:20:55;;;;;;;4.47;2.78;;;;;;;19.52;46.83;99402.16;338603;28;4680;-68
2023/06/15 00:21:08;;;;;;;4.03;2.75;;;;;;;19.53;46.78;99396.75;334792;28;17928;-68
2023/06/15 00:21:22;;;;;;;3.35;2.72;;;;;;;19.53;46.87;99394.13;336075;28;18048;-68
2023/06/15 00:21:40;;;;;;;3.22;2.90;;;;;;;19.56;46.68;99407.09;334979;28;18203;-68
2023/06/15 00:21:53;;;;;;;4.13;2.80;;;;;;;19.58;46.34;99400.84;336587;28;18824;-68
2023/06/15 00:22:06;;;;;;;3.97;2.75;;;;;;;19.59;46.33;99402.56;336362;28;17985;-68
2023/06/15 00:22:18;;;;;;;3.50;2.80;;;;;;;19.58;46.15;99400.84;339483;28;12486;-69
2023/06/15 00:22:30;;;;;;;3.33;2.88;;;;;;;19.58;46.45;99406.13;337625;28;17835;-68
2023/06/15 00:22:45;;;;;;;3.53;2.90;;;;;;;19.60;46.55;99404.22;338934;28;4668;-69
2023/06/15 00:22:58;;;;;;;3.22;2.92;;;;;;;19.59;46.29;99402.56;335948;28;18521;-69
2023/06/15 00:23:11;;;;;;;3.58;2.92;;;;;;;19.61;46.11;99406.75;335405;28;18355;-68
2023/06/15 00:23:26;;;;;;;3.40;2.83;;;;;;;19.61;45.94;99400.63;336049;28;11579;-69
2023/06/15 00:23:40;;;;;;;3.08;2.78;;;;;;;19.61;45.60;99401.47;335766;28;17706;-69
2023/06/15 00:23:52;;;;;;;3.08;2.72;;;;;;;19.59;46.36;99403.38;339102;28;5566;-69
2023/06/15 00:24:04;;;;;;;3.10;2.80;;;;;;;19.58;46.37;99400.84;335418;28;18198;-69
2023/06/15 00:24:17;;;;;;;3.10;2.75;;;;;;;19.59;46.19;99399.91;338812;28;4536;-69
2023/06/15 00:24:29;;;;;;;6.63;2.70;;;;;;;19.60;46.73;99409.50;334741;28;17804;-69
2023/06/15 00:24:44;;;;;;;6.90;2.70;;;;;;;19.60;46.25;99404.22;337256;28;5406;-68
2023/06/15 00:24:56;;;;;;;4.55;2.83;;;;;;;19.61;46.45;99400.63;335239;28;16331;-68
2023/06/15 00:25:08;;;;;;;3.45;2.80;;;;;;;19.61;46.96;99405.91;339193;28;5085;-68
2023/06/15 00:25:20;;;;;;;3.25;2.70;;;;;;;19.59;46.74;99402.56;337244;28;18129;-69
2023/06/15 00:25:33;;;;;;;3.97;2.88;;;;;;;19.60;46.68;99409.50;339861;28;5234;-68
2023/06/15 00:25:45;;;;;;;4.15;2.92;;;;;;;19.56;47.08;99407.09;336268;28;18387;-68
2023/06/15 00:25:57;;;;;;;4.10;2.95;;;;;;;19.58;46.73;99406.13;339896;28;5504;-68
2023/06/15 00:26:09;;;;;;;4.43;2.88;;;;;;;19.58;46.69;99406.13;337345;28;18173;-68
2023/06/15 00:26:21;;;;;;;4.35;2.90;;;;;;;19.59;46.84;99405.19;338755;28;4783;-69
2023/06/15 00:26:33;;;;;;;3.25;2.90;;;;;;;19.59;47.01;99403.38;338687;28;4665;-69
2023/06/15 00:26:45;;;;;;;3.78;3.00;;;;;;;19.61;46.60;99411.19;336033;28;18337;-68
2023/06/15 00:26:56;;;;;;;3.53;2.90;;;;;;;19.60;46.70;99406.84;339911;28;5615;-68
2023/06/15 00:27:10;;;;;;;4.13;2.80;;;;;;;19.59;46.66;99408.66;336858;28;16285;-69
2023/06/15 00:27:22;;;;;;;3.70;2.78;;;;;;;19.58;46.42;99401.72;338634;28;4661;-68
2023/06/15 00:27:35;;;;;;;4.78;3.00;;;;;;;19.61;46.36;99411.19;335752;28;18203;-68
2023/06/15 00:27:47;;;;;;;3.72;2.80;;;;;;;19.62;46.03;99404.94;339429;28;4652;-68
2023/06/15 00:27:59;;;;;;;3.55;2.72;;;;;;;19.64;45.98;99400.41;336577;28;5473;-69
2023/06/15 00:28:11;;;;;;;3.13;2.80;;;;;;;19.61;45.81;99400.63;339659;28;4846;-69
2023/06/15 00:28:23;;;;;;;3.10;2.80;;;;;;;19.61;45.88;99400.63;337747;28;5448;-69
2023/06/15 00:28:35;;;;;;;3.00;2.70;;;;;;;19.61;45.81;99405.91;337143;28;18346;-69
2023/06/15 00:28:47;;;;;;;2.97;2.70;;;;;;;19.62;45.73;99405.81;338963;28;4657;-68
2023/06/15 00:28:59;;;;;;;2.88;2.67;;;;;;;19.62;45.77;99402.31;337071;28;17864;-69
2023/06/15 00:29:11;;;;;;;3.00;2.70;;;;;;;19.64;45.69;99405.66;339938;28;5567;-69
2023/06/15 00:29:23;;;;;;;5.82;2.80;;;;;;;19.63;46.03;99398.72;337332;28;11692;-69
2023/06/15 00:29:35;;;;;;;5.82;2.70;;;;;;;19.64;45.70;99405.66;339482;28;4628;-68
2023/06/15 00:29:47;;;;;;;4.45;2.78;;;;;;;19.62;45.56;99407.56;338872;28;4608;-68
2023/06/15 00:29:59;;;;;;;3.67;2.88;;;;;;;19.60;46.50;99399.81;336702;28;18322;-69
2023/06/15 00:30:12;;;;;;;4.80;2.90;;;;;;;19.60;46.57;99402.44;339085;28;4660;-68
2023/06/15 00:30:24;;;;;;;4.40;2.80;;;;;;;19.60;46.04;99405.09;336685;28;18032;-69
2023/06/15 00:30:36;;;;;;;4.22;2.80;;;;;;;19.60;45.98;99399.81;339768;28;4689;-69
2023/06/15 00:30:48;;;;;;;3.25;2.60;;;;;;;19.61;46.03;99401.47;339535;28;5215;-69
2023/06/15 00:31:00;;;;;;;3.28;2.60;;;;;;;19.64;46.08;99405.66;337134;28;18768;-69
2023/06/15 00:31:12;;;;;;;3.88;2.80;;;;;;;19.66;45.91;99398.47;339509;28;4654;-68
2023/06/15 00:31:24;;;;;;;3.88;2.65;;;;;;;19.66;45.77;99404.63;336992;28;18039;-69
2023/06/15 00:31:36;;;;;;;3.08;2.45;;;;;;;19.67;45.93;99400.19;338237;28;4661;-68
2023/06/15 00:31:48;;;;;;;3.33;2.50;;;;;;;19.66;45.92;99401.13;338574;28;8430;-69
2023/06/15 00:32:00;;;;;;;3.58;2.75;;;;;;;19.65;46.03;99404.72;338091;28;17475;-69
2023/06/15 00:32:12;;;;;;;4.20;2.90;;;;;;;19.66;46.40;99409.91;339769;28;5032;-68
2023/06/15 00:32:24;;;;;;;5.53;2.90;;;;;;;19.67;46.30;99400.19;336300;28;21918;-69
2023/06/15 00:32:37;;;;;;;5.38;2.80;;;;;;;19.65;46.05;99400.28;339294;28;5097;-68
2023/06/15 00:32:49;;;;;;;3.75;3.03;;;;;;;19.62;46.88;99397.91;336353;28;18083;-69
2023/06/15 00:33:02;;;;;;;4.05;3.20;;;;;;;19.63;46.37;99396.94;340054;28;4956;-68
2023/06/15 00:33:14;;;;;;;4.38;3.15;;;;;;;19.64;46.52;99405.66;337031;28;18055;-68
2023/06/15 00:33:26;;;;;;;3.80;2.80;;;;;;;19.62;46.10;99404.94;340069;28;4538;-68
2023/06/15 00:33:38;;;;;;;3.50;2.88;;;;;;;19.64;45.87;99403.03;337404;28;4580;-69
2023/06/15 00:33:51;;;;;;;4.00;2.90;;;;;;;19.61;45.97;99400.63;339702;28;4476;-68
2023/06/15 00:34:03;;;;;;;3.95;2.92;;;;;;;19.61;46.25;99405.91;339966;28;4521;-69
2023/06/15 00:34:15;;;;;;;3.67;2.80;;;;;;;19.61;46.62;99400.63;335597;28;18220;-69
2023/06/15 00:34:27;;;;;;;2.95;2.60;;;;;;;19.56;46.84;99401.81;338653;28;4630;-68
2023/06/15 00:34:39;;;;;;;3.25;2.72;;;;;;;19.58;46.44;99406.13;335924;28;18013;-69
2023/06/15 00:34:51;;;;;;;3.10;2.80;;;;;;;19.58;46.35;99404.34;338373;28;5043;-68
2023/06/15 00:35:04;;;;;;;3.20;2.80;;;;;;;19.60;46.44;99405.09;337457;28;5410;-68
2023/06/15 00:35:16;;;;;;;3.13;2.75;;;;;;;19.59;46.66;99408.66;336105;28;19300;-68
2023/06/15 00:35:28;;;;;;;3.90;2.80;;;;;;;19.59;46.12;99410.47;338193;28;5598;-69
2023/06/15 00:35:40;;;;;;;4.07;2.90;;;;;;;19.60;46.16;99405.09;338278;28;17385;-69
2023/06/15 00:35:52;;;;;;;4.45;2.90;;;;;;;19.62;45.77;99402.31;337844;28;4993;-68
2023/06/15 00:36:07;;;;;;;4.80;3.00;;;;;;;19.62;45.96;99403.16;334326;28;19029;-69
2023/06/15 00:36:19;;;;;;;4.13;2.90;;;;;;;19.65;45.80;99410.00;335259;28;16404;-68
2023/06/15 00:36:31;;;;;;;3.05;2.67;;;;;;;19.66;45.59;99409.03;338944;28;4673;-68
2023/06/15 00:36:46;;;;;;;2.80;2.50;;;;;;;19.65;45.46;99402.94;336709;28;17927;-68
2023/06/15 00:36:58;;;;;;;2.88;2.55;;;;;;;19.65;45.82;99413.47;338913;28;4565;-69
2023/06/15 00:37:10;;;;;;;4.07;2.60;;;;;;;19.56;45.31;99409.72;337329;28;18537;-68
2023/06/15 00:37:22;;;;;;;4.25;2.83;;;;;;;19.56;45.51;99412.38;339811;28;5132;-69
2023/06/15 00:37:34;;;;;;;4.40;3.10;;;;;;;19.55;45.39;99408.03;337623;28;18049;-68
2023/06/15 00:37:46;;;;;;;3.33;3.00;;;;;;;19.56;45.42;99404.47;340184;28;4656;-68
2023/06/15 00:37:58;;;;;;;3.30;2.80;;;;;;;19.56;45.50;99409.72;337317;28;11738;-69
2023/06/15 00:38:10;;;;;;;3.70;2.80;;;;;;;19.59;45.59;99402.56;339556;28;5069;-68
2023/06/15 00:38:22;;;;;;;3.45;2.83;;;;;;;19.60;45.98;99404.22;339904;28;4672;-69
2023/06/15 00:38:35;;;;;;;3.60;2.95;;;;;;;19.60;45.52;99405.09;337003;28;18030;-69
2023/06/15 00:38:47;;;;;;;2.95;2.72;;;;;;;19.59;45.42;99403.38;339882;28;5582;-68
2023/06/15 00:38:59;;;;;;;2.80;2.60;;;;;;;19.60;45.24;99410.34;337563;28;18241;-68
2023/06/15 00:39:11;;;;;;;4.55;2.78;;;;;;;19.60;45.47;99409.50;340060;28;5353;-69
2023/06/15 00:39:23;;;;;;;4.93;2.85;;;;;;;19.61;45.59;99405.91;336495;28;14016;-69
2023/06/15 00:39:35;;;;;;;4.75;2.70;;;;;;;19.62;45.49;99407.56;336961;28;17462;-69
2023/06/15 00:39:47;;;;;;;3.15;2.63;;;;;;;19.64;45.65;99410.94;337634;28;4599;-68
2023/06/15 00:40:00;;;;;;;3.97;2.80;;;;;;;19.63;45.56;99409.28;335261;28;17428;-68
2023/06/15 00:40:12;;;;;;;3.90;2.75;;;;;;;19.64;45.57;99405.66;338528;28;4600;-69
2023/06/15 00:40:24;;;;;;;3.70;2.80;;;;;;;19.65;45.57;99407.38;335655;28;16139;-69
2023/06/15 00:40:38;;;;;;;4.00;2.80;;;;;;;19.64;45.27;99405.66;338450;28;5223;-68
2023/06/15 00:40:50;;;;;;;3.50;2.78;;;;;;;19.66;45.93;99409.03;335406;28;18135;-69
2023/06/15 00:41:02;;;;;;;3.20;2.90;;;;;;;19.66;45.68;99415.16;338349;28;4656;-69
2023/06/15 00:41:15;;;;;;;3.20;2.90;;;;;;;19.66;45.71;99409.91;336040;28;18058;-69
2023/06/15 00:41:27;;;;;;;3.17;2.88;;;;;;;19.67;46.12;99410.72;339138;28;5285;-69
2023/06/15 00:41:43;;;;;;;3.10;2.80;;;;;;;19.67;46.03;99410.72;337367;28;11798;-69
2023/06/15 00:41:55;;;;;;;3.00;2.70;;;;;;;19.67;45.68;99408.09;336158;28;18159;-69
2023/06/15 00:42:07;;;;;;;3.00;2.70;;;;;;;19.66;45.74;99411.66;339331;28;4698;-69
2023/06/15 00:42:19;;;;;;;3.17;2.88;;;;;;;19.66;45.71;99409.03;337498;28;16310;-69
2023/06/15 00:42:31;;;;;;;3.10;2.80;;;;;;;19.66;45.46;99403.75;339695;28;5162;-68
2023/06/15 00:42:44;;;;;;;3.13;2.80;;;;;;;19.66;45.34;99414.31;340168;28;4669;-68
2023/06/15 00:42:56;;;;;;;3.13;2.80;;;;;;;19.67;45.31;99405.47;337220;28;18072;-68
2023/06/15 00:43:08;;;;;;;3.67;2.83;;;;;;;19.66;45.77;99404.63;336415;28;10525;-69
2023/06/15 00:43:21;;;;;;;3.78;2.90;;;;;;;19.67;45.47;99406.28;339198;28;5751;-69
2023/06/15 00:43:32;;;;;;;3.15;2.85;;;;;;;19.66;46.36;99409.03;340666;28;4658;-68
2023/06/15 00:43:44;;;;;;;3.22;2.80;;;;;;;19.68;45.67;99407.13;336829;28;18102;-69
2023/06/15 00:43:56;;;;;;;3.28;2.80;;;;;;;19.66;45.63;99406.41;339626;28;4642;-68
2023/06/15 00:44:09;;;;;;;3.58;2.80;;;;;;;19.67;46.28;99408.09;337552;28;5169;-69
2023/06/15 00:44:21;;;;;;;3.42;2.90;;;;;;;19.67;46.13;99410.72;340036;28;4762;-68
2023/06/15 00:44:33;;;;;;;3.30;2.97;;;;;;;19.68;45.83;99408.00;339403;28;12327;-69
2023/06/15 00:44:45;;;;;;;3.70;2.90;;;;;;;19.66;46.58;99409.03;336611;28;18552;-68
2023/06/15 00:44:57;;;;;;;3.40;2.70;;;;;;;19.64;46.32;99406.53;339776;28;5561;-68
2023/06/15 00:45:10;;;;;;;3.20;2.60;;;;;;;19.65;46.54;99407.38;337097;28;18041;-69
2023/06/15 00:45:22;;;;;;;3.10;2.65;;;;;;;19.64;46.46;99416.22;338903;28;5664;-69
2023/06/15 00:45:34;;;;;;;3.50;2.75;;;;;;;19.61;46.85;99411.19;335936;28;16239;-68
2023/06/15 00:45:46;;;;;;;3.10;2.70;;;;;;;19.60;46.43;99406.84;340194;28;4609;-69
2023/06/15 00:45:59;;;;;;;4.07;2.85;;;;;;;19.60;46.80;99410.34;338588;28;4672;-69
2023/06/15 00:46:12;;;;;;;4.63;2.95;;;;;;;19.58;46.88;99409.63;335001;28;19030;-69
2023/06/15 00:46:25;;;;;;;4.07;2.78;;;;;;;19.59;46.65;99407.81;335880;28;18028;-69
2023/06/15 00:46:38;;;;;;;3.28;2.50;;;;;;;19.58;46.75;99412.25;338650;28;5488;-68
2023/06/15 00:46:50;;;;;;;3.53;2.50;;;;;;;19.58;46.90;99411.41;337539;28;18139;-68
2023/06/15 00:47:03;;;;;;;3.95;2.60;;;;;;;19.55;47.13;99407.19;338732;28;4796;-68
2023/06/15 00:47:19;;;;;;;5.05;2.78;;;;;;;19.53;46.81;99409.09;335863;28;18319;-68
2023/06/15 00:47:34;;;;;;;4.60;2.70;;;;;;;19.52;46.88;99410.91;335898;28;18947;-69
2023/06/15 00:47:46;;;;;;;4.25;2.85;;;;;;;19.52;46.34;99410.09;336145;28;19100;-69
2023/06/15 00:48:00;;;;;;;4.30;3.10;;;;;;;19.52;46.37;99418.81;337182;28;4681;-68
2023/06/15 00:48:13;;;;;;;4.07;3.03;;;;;;;19.51;46.54;99406.56;337945;28;18103;-68
2023/06/15 00:48:25;;;;;;;3.15;2.85;;;;;;;19.53;46.24;99414.38;337071;28;18078;-69
2023/06/15 00:48:37;;;;;;;3.08;2.78;;;;;;;19.53;46.10;99411.75;340193;28;4540;-69
2023/06/15 00:48:49;;;;;;;3.15;2.83;;;;;;;19.52;46.22;99412.72;335681;28;17533;-69
2023/06/15 00:49:03;;;;;;;3.10;2.80;;;;;;;19.52;46.49;99415.34;339476;28;4661;-68
2023/06/15 00:49:15;;;;;;;3.40;2.88;;;;;;;19.54;46.02;99413.44;337545;28;17914;-69
2023/06/15 00:49:28;;;;;;;3.35;2.80;;;;;;;19.54;46.14;99416.09;339277;28;4684;-69
2023/06/15 00:49:40;;;;;;;3.53;2.58;;;;;;;19.52;46.63;99413.53;336644;28;18088;-69
2023/06/15 00:49:52;;;;;;;4.10;2.65;;;;;;;19.52;46.29;99412.72;339698;28;4884;-68
2023/06/15 00:50:14;;;;;;;4.45;2.83;;;;;;;19.52;45.96;99412.72;337313;28;18086;-68
2023/06/15 00:50:30;;;;;;;3.17;2.88;;;;;;;19.52;45.91;99413.53;336575;28;17328;-69
2023/06/15 00:50:42;;;;;;;3.00;2.70;;;;;;;19.54;45.79;99416.91;337239;28;17972;-69
2023/06/15 00:50:54;;;;;;;3.10;2.80;;;;;;;19.53;46.11;99409.09;337244;28;16440;-69
2023/06/15 00:51:08;;;;;;;3.00;2.70;;;;;;;19.52;46.48;99413.53;339536;28;4690;-69
2023/06/15 00:51:20;;;;;;;2.97;2.67;;;;;;;19.53;46.30;99415.22;337405;28;18334;-69
2023/06/15 00:51:35;;;;;;;3.05;2.72;;;;;;;19.53;46.14;99412.59;339861;28;5789;-69
2023/06/15 00:51:47;;;;;;;3.15;2.80;;;;;;;19.55;46.19;99420.38;336762;28;17972;-69
2023/06/15 00:52:00;;;;;;;3.08;2.72;;;;;;;19.52;46.27;99408.28;337470;28;18084;-69
2023/06/15 00:52:14;;;;;;;3.20;2.60;;;;;;;19.53;46.50;99414.38;340080;28;4697;-69
2023/06/15 00:52:26;;;;;;;3.10;2.60;;;;;;;19.51;45.99;99411.84;336682;28;17991;-69
2023/06/15 00:52:38;;;;;;;3.03;2.60;;;;;;;19.49;46.03;99416.41;338898;28;4720;-68
2023/06/15 00:52:52;;;;;;;3.20;2.60;;;;;;;19.45;45.98;99422.84;338720;28;17427;-69
2023/06/15 00:53:10;;;;;;;3.80;2.60;;;;;;;19.44;45.63;99421.19;337020;28;18005;-68
2023/06/15 00:53:22;;;;;;;4.10;2.60;;;;;;;19.44;46.20;99415.91;337209;28;17926;-68
2023/06/15 00:53:35;;;;;;;3.42;2.70;;;;;;;19.42;46.78;99417.81;336420;28;15070;-69
2023/06/15 00:53:47;;;;;;;3.90;2.88;;;;;;;19.45;46.13;99414.94;338447;28;5115;-68
2023/06/15 00:54:00;;;;;;;4.43;2.90;;;;;;;19.46;46.12;99414.00;335854;28;18147;-68
2023/06/15 00:54:18;;;;;;;3.97;2.83;;;;;;;19.46;46.06;99411.38;339235;28;4569;-69
2023/06/15 00:54:30;;;;;;;2.97;2.67;;;;;;;19.47;45.80;99413.03;337038;28;18056;-69
2023/06/15 00:54:43;;;;;;;3.38;2.60;;;;;;;19.45;46.55;99420.22;339447;28;4657;-69
2023/06/15 00:54:56;;;;;;;3.80;2.85;;;;;;;19.47;45.91;99417.47;336870;28;17665;-68
2023/06/15 00:55:12;;;;;;;4.05;2.97;;;;;;;19.47;45.99;99420.09;339529;28;4839;-69
2023/06/15 00:55:25;;;;;;;3.28;2.80;;;;;;;19.48;46.17;99417.38;336005;28;17689;-69
2023/06/15 00:55:39;;;;;;;3.70;2.88;;;;;;;19.49;45.94;99412.94;338932;28;4764;-68
2023/06/15 00:55:52;;;;;;;3.78;2.90;;;;;;;19.46;46.35;99411.38;336072;28;19022;-69
2023/06/15 00:56:05;;;;;;;3.95;2.80;;;;;;;19.46;46.15;99414.00;337682;28;5827;-69
2023/06/15 00:56:17;;;;;;;4.97;2.90;;;;;;;19.46;46.42;99413.16;339870;28;4642;-68
2023/06/15 00:56:29;;;;;;;4.88;2.97;;;;;;;19.47;46.41;99425.38;337296;28;17375;-69
2023/06/15 00:56:42;;;;;;;4.05;2.80;;;;;;;19.47;46.02;99418.31;338997;28;4551;-68
2023/06/15 00:56:55;;;;;;;3.33;2.88;;;;;;;19.46;46.36;99414.00;337578;28;6914;-69
2023/06/15 00:57:08;;;;;;;4.00;3.13;;;;;;;19.43;46.37;99414.22;338451;28;17236;-69
2023/06/15 00:57:24;;;;;;;4.18;3.13;;;;;;;19.42;46.76;99412.53;336998;28;17931;-69
2023/06/15 00:57:36;;;;;;;3.78;2.97;;;;;;;19.44;46.28;99415.06;337443;28;18463;-69
2023/06/15 00:57:49;;;;;;;3.45;3.00;;;;;;;19.46;46.03;99418.44;338668;28;6247;-69
2023/06/15 00:58:02;;;;;;;3.17;2.80;;;;;;;19.44;45.97;99421.19;336481;28;17277;-68
2023/06/15 00:58:15;;;;;;;3.20;2.78;;;;;;;19.44;45.84;99415.06;336845;28;9849;-69
2023/06/15 00:58:27;;;;;;;5.80;2.88;;;;;;;19.44;45.75;99418.53;340027;28;4569;-68
2023/06/15 00:58:39;;;;;;;5.55;2.95;;;;;;;19.44;45.83;99415.06;337450;28;4708;-69
2023/06/15 00:58:51;;;;;;;5.28;3.00;;;;;;;19.40;46.38;99413.59;338551;28;5427;-68
2023/06/15 00:59:04;;;;;;;3.70;2.97;;;;;;;19.39;46.96;99412.75;339878;28;4668;-68
2023/06/15 00:59:18;;;;;;;4.28;2.90;;;;;;;19.40;46.13;99418.84;336591;28;16564;-69
2023/06/15 00:59:30;;;;;;;4.28;2.92;;;;;;;19.41;46.27;99416.13;337235;28;18907;-69
2023/06/15 00:59:42;;;;;;;3.95;3.15;;;;;;;19.40;46.57;99419.72;338875;28;4815;-69
2023/06/15 00:59:55;;;;;;;4.10;3.15;;;;;;;19.37;46.88;99419.94;336445;28;18119;-68
2023/06/15 01:00:09;;;;;;;4.13;3.10;;;;;;;19.35;46.53;99413.94;339538;28;4543;-69
2023/06/15 01:00:22;;;;;;;4.40;3.00;;;;;;;19.35;46.93;99414.75;337341;28;17990;-69